sensor_id;sensor_type;location;lat;lon;timestamp;P1;durP1;ratioP1;P2;durP2;ratioP2
54515;SDS011;40422;45.892;4.738;2023-02-28T04:01:20;8.00;;;3.50;;
54515;SDS011;40422;45.892;4.738;2023-02-28T04:03:51;8.85;;;3.83;;
54515;SDS011;40422;45.892;4.738;2023-02-28T04:06:18;7.60;;;3.28;;
54515;SDS011;40422;45.892;4.738;2023-02-28T04:08:45;14.27;;;6.57;;
54515;SDS011;40422;45.892;4.738;2023-02-28T04:13:43;10.25;;;4.95;;
54515;SDS011;40422;45.892;4.738;2023-02-28T04:16:09;10.13;;;5.30;;
54515;SDS011;40422;45.892;4.738;2023-02-28T04:18:37;9.63;;;4.80;;
54515;SDS011;40422;45.892;4.738;2023-02-28T04:21:04;11.38;;;5.15;;
54515;SDS011;40422;45.892;4.738;2023-02-28T04:23:30;12.52;;;5.50;;
54515;SDS011;40422;45.892;4.738;2023-02-28T04:25:56;12.35;;;5.47;;
54515;SDS011;40422;45.892;4.738;2023-02-28T04:28:22;9.90;;;4.65;;
54515;SDS011;40422;45.892;4.738;2023-02-28T04:30:53;13.27;;;4.75;;
54515;SDS011;40422;45.892;4.738;2023-02-28T04:33:20;8.95;;;4.35;;
54515;SDS011;40422;45.892;4.738;2023-02-28T04:35:46;7.85;;;3.80;;
54515;SDS011;40422;45.892;4.738;2023-02-28T04:38:11;11.32;;;4.22;;
54515;SDS011;40422;45.892;4.738;2023-02-28T04:40:37;9.43;;;4.00;;
54515;SDS011;40422;45.892;4.738;2023-02-28T04:43:02;9.20;;;4.05;;
54515;SDS011;40422;45.892;4.738;2023-02-28T04:45:28;9.00;;;4.10;;
54515;SDS011;40422;45.892;4.738;2023-02-28T04:47:57;7.80;;;3.78;;
54515;SDS011;40422;45.892;4.738;2023-02-28T04:50:23;10.10;;;4.10;;
54515;SDS011;40422;45.892;4.738;2023-02-28T04:52:48;8.73;;;4.07;;
54515;SDS011;40422;45.892;4.738;2023-02-28T04:55:14;8.25;;;3.83;;
54515;SDS011;40422;45.892;4.738;2023-02-28T04:57:39;9.52;;;3.97;;
54515;SDS011;40422;45.892;4.738;2023-02-28T05:00:07;8.75;;;3.80;;
54515;SDS011;40422;45.892;4.738;2023-02-28T05:02:36;9.45;;;3.88;;
54515;SDS011;40422;45.892;4.738;2023-02-28T05:05:03;8.80;;;4.38;;
54515;SDS011;40422;45.892;4.738;2023-02-28T05:07:29;12.65;;;3.35;;
54515;SDS011;40422;45.892;4.738;2023-02-28T05:09:54;8.00;;;3.58;;
54515;SDS011;40422;45.892;4.738;2023-02-28T05:12:20;8.70;;;3.88;;
54515;SDS011;40422;45.892;4.738;2023-02-28T05:14:46;10.55;;;4.47;;
54515;SDS011;40422;45.892;4.738;2023-02-28T05:17:11;6.85;;;3.53;;
54515;SDS011;40422;45.892;4.738;2023-02-28T05:19:37;8.52;;;3.30;;
54515;SDS011;40422;45.892;4.738;2023-02-28T05:22:02;8.00;;;3.38;;
54515;SDS011;40422;45.892;4.738;2023-02-28T05:24:28;8.23;;;3.42;;
54515;SDS011;40422;45.892;4.738;2023-02-28T05:26:54;9.35;;;3.72;;
54515;SDS011;40422;45.892;4.738;2023-02-28T05:29:20;9.98;;;4.10;;
54515;SDS011;40422;45.892;4.738;2023-02-28T05:31:46;9.32;;;4.25;;
54515;SDS011;40422;45.892;4.738;2023-02-28T05:34:12;9.15;;;3.65;;
54515;SDS011;40422;45.892;4.738;2023-02-28T05:36:38;8.27;;;3.75;;
54515;SDS011;40422;45.892;4.738;2023-02-28T05:39:05;23.70;;;4.18;;
54515;SDS011;40422;45.892;4.738;2023-02-28T05:41:32;8.93;;;3.95;;
54515;SDS011;40422;45.892;4.738;2023-02-28T05:43:58;8.63;;;4.03;;
54515;SDS011;40422;45.892;4.738;2023-02-28T05:46:24;10.65;;;4.30;;
54515;SDS011;40422;45.892;4.738;2023-02-28T05:48:50;9.23;;;4.07;;
54515;SDS011;40422;45.892;4.738;2023-02-28T05:51:16;10.32;;;4.35;;
54515;SDS011;40422;45.892;4.738;2023-02-28T05:53:42;10.15;;;4.20;;
54515;SDS011;40422;45.892;4.738;2023-02-28T05:56:08;7.47;;;3.65;;
54515;SDS011;40422;45.892;4.738;2023-02-28T05:58:33;7.15;;;3.55;;
54515;SDS011;40422;45.892;4.738;2023-02-28T06:01:00;8.55;;;3.90;;
54515;SDS011;40422;45.892;4.738;2023-02-28T06:03:43;8.88;;;4.25;;
54515;SDS011;40422;45.892;4.738;2023-02-28T06:06:09;9.32;;;4.10;;
54515;SDS011;40422;45.892;4.738;2023-02-28T06:08:34;8.73;;;4.38;;
54515;SDS011;40422;45.892;4.738;2023-02-28T06:11:02;9.48;;;4.15;;
54515;SDS011;40422;45.892;4.738;2023-02-28T06:13:28;11.20;;;4.50;;
54515;SDS011;40422;45.892;4.738;2023-02-28T06:15:54;8.98;;;3.83;;
54515;SDS011;40422;45.892;4.738;2023-02-28T06:18:20;8.15;;;3.45;;
54515;SDS011;40422;45.892;4.738;2023-02-28T06:20:52;8.63;;;3.53;;
54515;SDS011;40422;45.892;4.738;2023-02-28T06:23:19;8.48;;;3.67;;
54515;SDS011;40422;45.892;4.738;2023-02-28T06:25:45;11.90;;;4.53;;
54515;SDS011;40422;45.892;4.738;2023-02-28T06:28:11;11.63;;;4.50;;
54515;SDS011;40422;45.892;4.738;2023-02-28T06:30:37;11.05;;;4.38;;
54515;SDS011;40422;45.892;4.738;2023-02-28T06:33:04;9.82;;;4.60;;
54515;SDS011;40422;45.892;4.738;2023-02-28T06:35:29;11.90;;;4.25;;
54515;SDS011;40422;45.892;4.738;2023-02-28T06:37:55;11.15;;;4.95;;
54515;SDS011;40422;45.892;4.738;2023-02-28T06:40:21;11.85;;;5.10;;
54515;SDS011;40422;45.892;4.738;2023-02-28T06:42:47;11.02;;;4.68;;
54515;SDS011;40422;45.892;4.738;2023-02-28T06:45:13;10.80;;;4.60;;
54515;SDS011;40422;45.892;4.738;2023-02-28T06:47:39;13.68;;;5.15;;
54515;SDS011;40422;45.892;4.738;2023-02-28T06:50:07;12.02;;;5.70;;
54515;SDS011;40422;45.892;4.738;2023-02-28T06:52:34;11.48;;;5.03;;
54515;SDS011;40422;45.892;4.738;2023-02-28T06:55:04;12.52;;;5.80;;
54515;SDS011;40422;45.892;4.738;2023-02-28T06:57:31;11.27;;;5.03;;
54515;SDS011;40422;45.892;4.738;2023-02-28T07:00:03;11.20;;;5.40;;
54515;SDS011;40422;45.892;4.738;2023-02-28T07:02:32;15.27;;;5.53;;
54515;SDS011;40422;45.892;4.738;2023-02-28T07:04:58;11.68;;;5.22;;
54515;SDS011;40422;45.892;4.738;2023-02-28T07:07:24;11.73;;;4.65;;
54515;SDS011;40422;45.892;4.738;2023-02-28T07:09:49;10.98;;;5.05;;
54515;SDS011;40422;45.892;4.738;2023-02-28T07:12:15;13.18;;;5.05;;
54515;SDS011;40422;45.892;4.738;2023-02-28T07:14:40;10.68;;;5.25;;
54515;SDS011;40422;45.892;4.738;2023-02-28T07:17:07;15.52;;;5.93;;
54515;SDS011;40422;45.892;4.738;2023-02-28T07:19:33;12.13;;;5.07;;
54515;SDS011;40422;45.892;4.738;2023-02-28T07:21:59;13.10;;;5.53;;
54515;SDS011;40422;45.892;4.738;2023-02-28T07:24:26;13.23;;;5.88;;
54515;SDS011;40422;45.892;4.738;2023-02-28T07:26:53;17.65;;;6.10;;
54515;SDS011;40422;45.892;4.738;2023-02-28T07:29:19;14.80;;;6.88;;
54515;SDS011;40422;45.892;4.738;2023-02-28T07:31:44;14.15;;;6.32;;
54515;SDS011;40422;45.892;4.738;2023-02-28T07:34:11;13.82;;;6.18;;
54515;SDS011;40422;45.892;4.738;2023-02-28T07:36:37;15.38;;;5.78;;
54515;SDS011;40422;45.892;4.738;2023-02-28T07:39:03;13.88;;;6.30;;
54515;SDS011;40422;45.892;4.738;2023-02-28T07:41:29;13.50;;;6.85;;
54515;SDS011;40422;45.892;4.738;2023-02-28T07:43:58;15.93;;;6.30;;
54515;SDS011;40422;45.892;4.738;2023-02-28T07:46:24;22.20;;;8.13;;
54515;SDS011;40422;45.892;4.738;2023-02-28T07:48:50;14.10;;;5.30;;
54515;SDS011;40422;45.892;4.738;2023-02-28T07:51:17;18.85;;;6.57;;
54515;SDS011;40422;45.892;4.738;2023-02-28T07:53:43;17.63;;;8.52;;
54515;SDS011;40422;45.892;4.738;2023-02-28T07:56:09;18.55;;;9.30;;
54515;SDS011;40422;45.892;4.738;2023-02-28T07:58:35;15.05;;;6.43;;
54515;SDS011;40422;45.892;4.738;2023-02-28T08:01:08;13.60;;;5.55;;
54515;SDS011;40422;45.892;4.738;2023-02-28T08:03:34;18.60;;;8.98;;
54515;SDS011;40422;45.892;4.738;2023-02-28T08:06:01;13.73;;;6.15;;
54515;SDS011;40422;45.892;4.738;2023-02-28T08:08:28;13.75;;;6.25;;
54515;SDS011;40422;45.892;4.738;2023-02-28T08:10:57;12.35;;;5.45;;
54515;SDS011;40422;45.892;4.738;2023-02-28T08:13:25;8.60;;;4.03;;
54515;SDS011;40422;45.892;4.738;2023-02-28T08:15:53;8.18;;;3.80;;
54515;SDS011;40422;45.892;4.738;2023-02-28T08:18:19;8.57;;;3.75;;
54515;SDS011;40422;45.892;4.738;2023-02-28T08:20:46;5.93;;;3.00;;
54515;SDS011;40422;45.892;4.738;2023-02-28T08:23:11;7.05;;;3.40;;
54515;SDS011;40422;45.892;4.738;2023-02-28T08:25:37;8.40;;;2.92;;
54515;SDS011;40422;45.892;4.738;2023-02-28T08:28:02;7.20;;;3.13;;
54515;SDS011;40422;45.892;4.738;2023-02-28T08:30:28;7.72;;;3.35;;
54515;SDS011;40422;45.892;4.738;2023-02-28T08:32:54;7.80;;;3.85;;
54515;SDS011;40422;45.892;4.738;2023-02-28T08:35:20;9.30;;;4.10;;
54515;SDS011;40422;45.892;4.738;2023-02-28T08:37:49;8.00;;;3.45;;
54515;SDS011;40422;45.892;4.738;2023-02-28T08:40:15;7.82;;;3.67;;
54515;SDS011;40422;45.892;4.738;2023-02-28T08:42:45;7.43;;;3.10;;
54515;SDS011;40422;45.892;4.738;2023-02-28T08:45:11;6.68;;;3.40;;
54515;SDS011;40422;45.892;4.738;2023-02-28T08:47:38;6.68;;;3.53;;
54515;SDS011;40422;45.892;4.738;2023-02-28T08:50:04;7.78;;;3.20;;
54515;SDS011;40422;45.892;4.738;2023-02-28T08:52:30;7.25;;;3.00;;
54515;SDS011;40422;45.892;4.738;2023-02-28T08:54:55;8.48;;;3.05;;
54515;SDS011;40422;45.892;4.738;2023-02-28T08:57:21;8.02;;;3.50;;
54515;SDS011;40422;45.892;4.738;2023-02-28T08:59:46;5.72;;;3.08;;
54515;SDS011;40422;45.892;4.738;2023-02-28T09:02:13;6.30;;;3.17;;
54515;SDS011;40422;45.892;4.738;2023-02-28T09:04:39;7.03;;;3.15;;
54515;SDS011;40422;45.892;4.738;2023-02-28T09:07:05;6.68;;;3.42;;
54515;SDS011;40422;45.892;4.738;2023-02-28T09:09:31;8.57;;;3.42;;
54515;SDS011;40422;45.892;4.738;2023-02-28T09:11:57;6.78;;;3.10;;
54515;SDS011;40422;45.892;4.738;2023-02-28T09:14:22;8.52;;;3.47;;
54515;SDS011;40422;45.892;4.738;2023-02-28T09:16:48;6.28;;;3.40;;
54515;SDS011;40422;45.892;4.738;2023-02-28T09:19:14;10.88;;;3.63;;
54515;SDS011;40422;45.892;4.738;2023-02-28T09:21:40;6.32;;;3.40;;
54515;SDS011;40422;45.892;4.738;2023-02-28T09:24:05;7.32;;;3.40;;
54515;SDS011;40422;45.892;4.738;2023-02-28T09:26:31;6.25;;;2.83;;
54515;SDS011;40422;45.892;4.738;2023-02-28T09:28:57;5.78;;;2.88;;
54515;SDS011;40422;45.892;4.738;2023-02-28T09:31:25;7.72;;;3.28;;
54515;SDS011;40422;45.892;4.738;2023-02-28T09:33:54;7.13;;;3.20;;
54515;SDS011;40422;45.892;4.738;2023-02-28T09:36:22;7.45;;;3.47;;
54515;SDS011;40422;45.892;4.738;2023-02-28T09:38:48;9.02;;;3.88;;
54515;SDS011;40422;45.892;4.738;2023-02-28T09:43:52;6.45;;;3.38;;
54515;SDS011;40422;45.892;4.738;2023-02-28T09:48:52;8.38;;;3.50;;
54515;SDS011;40422;45.892;4.738;2023-02-28T09:53:52;8.35;;;4.43;;
54515;SDS011;40422;45.892;4.738;2023-02-28T09:56:20;7.45;;;3.35;;
54515;SDS011;40422;45.892;4.738;2023-02-28T09:58:54;7.72;;;3.55;;
54515;SDS011;40422;45.892;4.738;2023-02-28T10:04:04;9.20;;;3.42;;
54515;SDS011;40422;45.892;4.738;2023-02-28T10:06:50;6.18;;;3.22;;
54515;SDS011;40422;45.892;4.738;2023-02-28T10:09:27;8.02;;;3.40;;
54515;SDS011;40422;45.892;4.738;2023-02-28T10:11:59;6.93;;;3.90;;
54515;SDS011;40422;45.892;4.738;2023-02-28T10:14:28;5.50;;;2.83;;
54515;SDS011;40422;45.892;4.738;2023-02-28T10:16:58;7.60;;;3.83;;
54515;SDS011;40422;45.892;4.738;2023-02-28T10:24:41;7.45;;;3.85;;
54515;SDS011;40422;45.892;4.738;2023-02-28T10:27:22;8.23;;;3.50;;
54515;SDS011;40422;45.892;4.738;2023-02-28T10:29:49;7.95;;;3.92;;
54515;SDS011;40422;45.892;4.738;2023-02-28T10:32:18;9.40;;;4.03;;
54515;SDS011;40422;45.892;4.738;2023-02-28T10:37:25;7.38;;;4.10;;
54515;SDS011;40422;45.892;4.738;2023-02-28T10:39:52;7.95;;;3.67;;
54515;SDS011;40422;45.892;4.738;2023-02-28T10:42:19;9.20;;;4.25;;
54515;SDS011;40422;45.892;4.738;2023-02-28T10:47:30;8.50;;;4.22;;
54515;SDS011;40422;45.892;4.738;2023-02-28T10:49:58;6.85;;;3.97;;
54515;SDS011;40422;45.892;4.738;2023-02-28T10:52:35;7.22;;;3.95;;
54515;SDS011;40422;45.892;4.738;2023-02-28T10:55:14;7.38;;;3.53;;
54515;SDS011;40422;45.892;4.738;2023-02-28T10:57:45;17.25;;;9.25;;
54515;SDS011;40422;45.892;4.738;2023-02-28T11:00:14;8.23;;;4.55;;
54515;SDS011;40422;45.892;4.738;2023-02-28T11:02:42;8.80;;;4.78;;
54515;SDS011;40422;45.892;4.738;2023-02-28T11:05:26;8.52;;;4.43;;
54515;SDS011;40422;45.892;4.738;2023-02-28T11:08:03;8.52;;;4.60;;
54515;SDS011;40422;45.892;4.738;2023-02-28T11:10:39;9.60;;;4.40;;
54515;SDS011;40422;45.892;4.738;2023-02-28T11:13:12;9.32;;;5.05;;
54515;SDS011;40422;45.892;4.738;2023-02-28T11:15:50;9.02;;;4.40;;
54515;SDS011;40422;45.892;4.738;2023-02-28T11:18:20;8.60;;;4.35;;
54515;SDS011;40422;45.892;4.738;2023-02-28T11:20:50;10.32;;;4.47;;
54515;SDS011;40422;45.892;4.738;2023-02-28T11:23:17;8.55;;;3.95;;
54515;SDS011;40422;45.892;4.738;2023-02-28T11:25:49;8.13;;;4.60;;
54515;SDS011;40422;45.892;4.738;2023-02-28T11:28:35;7.30;;;4.20;;
54515;SDS011;40422;45.892;4.738;2023-02-28T11:31:14;8.75;;;4.72;;
54515;SDS011;40422;45.892;4.738;2023-02-28T11:36:19;7.57;;;4.03;;
54515;SDS011;40422;45.892;4.738;2023-02-28T11:38:45;8.30;;;4.07;;
54515;SDS011;40422;45.892;4.738;2023-02-28T11:46:45;8.07;;;4.50;;
54515;SDS011;40422;45.892;4.738;2023-02-28T11:49:28;9.35;;;4.47;;
54515;SDS011;40422;45.892;4.738;2023-02-28T11:52:35;7.95;;;4.13;;
54515;SDS011;40422;45.892;4.738;2023-02-28T12:02:52;11.30;;;4.88;;
54515;SDS011;40422;45.892;4.738;2023-02-28T12:05:34;10.75;;;4.47;;
54515;SDS011;40422;45.892;4.738;2023-02-28T12:08:15;8.75;;;4.88;;
54515;SDS011;40422;45.892;4.738;2023-02-28T12:14:06;7.60;;;4.22;;
54515;SDS011;40422;45.892;4.738;2023-02-28T12:19:18;7.53;;;4.03;;
54515;SDS011;40422;45.892;4.738;2023-02-28T12:27:12;7.50;;;4.07;;
54515;SDS011;40422;45.892;4.738;2023-02-28T12:29:49;8.25;;;4.30;;
54515;SDS011;40422;45.892;4.738;2023-02-28T12:32:38;7.40;;;4.15;;
54515;SDS011;40422;45.892;4.738;2023-02-28T12:40:38;9.20;;;4.63;;
54515;SDS011;40422;45.892;4.738;2023-02-28T12:43:07;8.02;;;4.10;;
54515;SDS011;40422;45.892;4.738;2023-02-28T12:48:15;7.45;;;3.90;;
54515;SDS011;40422;45.892;4.738;2023-02-28T12:50:47;7.28;;;3.70;;
54515;SDS011;40422;45.892;4.738;2023-02-28T12:53:15;7.40;;;4.00;;
54515;SDS011;40422;45.892;4.738;2023-02-28T12:58:54;6.85;;;3.40;;
54515;SDS011;40422;45.892;4.738;2023-02-28T13:09:35;9.18;;;4.40;;
54515;SDS011;40422;45.892;4.738;2023-02-28T13:12:05;8.48;;;4.28;;
54515;SDS011;40422;45.892;4.738;2023-02-28T13:14:38;9.15;;;4.00;;
54515;SDS011;40422;45.892;4.738;2023-02-28T13:25:00;9.70;;;4.85;;
54515;SDS011;40422;45.892;4.738;2023-02-28T13:27:34;9.30;;;4.22;;
54515;SDS011;40422;45.892;4.738;2023-02-28T13:33:31;7.38;;;3.55;;
54515;SDS011;40422;45.892;4.738;2023-02-28T13:36:07;8.80;;;4.40;;
54515;SDS011;40422;45.892;4.738;2023-02-28T13:38:42;8.20;;;4.53;;
54515;SDS011;40422;45.892;4.738;2023-02-28T13:46:24;8.95;;;4.78;;
54515;SDS011;40422;45.892;4.738;2023-02-28T13:48:49;8.65;;;3.80;;
54515;SDS011;40422;45.892;4.738;2023-02-28T13:51:34;8.63;;;4.60;;
54515;SDS011;40422;45.892;4.738;2023-02-28T13:54:27;9.52;;;5.10;;
54515;SDS011;40422;45.892;4.738;2023-02-28T14:00:13;9.93;;;4.63;;
54515;SDS011;40422;45.892;4.738;2023-02-28T14:05:32;7.95;;;4.78;;
54515;SDS011;40422;45.892;4.738;2023-02-28T14:08:00;10.15;;;4.80;;
54515;SDS011;40422;45.892;4.738;2023-02-28T14:10:35;8.55;;;4.55;;
54515;SDS011;40422;45.892;4.738;2023-02-28T14:13:36;8.20;;;4.68;;
54515;SDS011;40422;45.892;4.738;2023-02-28T14:16:09;9.93;;;4.47;;
54515;SDS011;40422;45.892;4.738;2023-02-28T14:18:37;8.20;;;4.20;;
54515;SDS011;40422;45.892;4.738;2023-02-28T14:26:47;10.88;;;5.10;;
54515;SDS011;40422;45.892;4.738;2023-02-28T14:32:14;9.15;;;4.97;;
54515;SDS011;40422;45.892;4.738;2023-02-28T14:38:06;9.13;;;5.18;;
54515;SDS011;40422;45.892;4.738;2023-02-28T14:40:38;10.32;;;4.78;;
54515;SDS011;40422;45.892;4.738;2023-02-28T14:43:05;9.35;;;4.43;;
54515;SDS011;40422;45.892;4.738;2023-02-28T14:45:43;10.13;;;5.30;;
54515;SDS011;40422;45.892;4.738;2023-02-28T14:48:15;7.53;;;4.10;;
54515;SDS011;40422;45.892;4.738;2023-02-28T14:50:42;12.30;;;4.80;;
54515;SDS011;40422;45.892;4.738;2023-02-28T14:53:17;8.30;;;4.60;;
54515;SDS011;40422;45.892;4.738;2023-02-28T14:55:45;9.35;;;5.07;;
54515;SDS011;40422;45.892;4.738;2023-02-28T15:00:55;10.07;;;4.88;;
54515;SDS011;40422;45.892;4.738;2023-02-28T15:03:29;9.60;;;4.90;;
54515;SDS011;40422;45.892;4.738;2023-02-28T15:05:59;9.30;;;4.82;;
54515;SDS011;40422;45.892;4.738;2023-02-28T15:08:28;9.30;;;5.18;;
54515;SDS011;40422;45.892;4.738;2023-02-28T15:11:00;9.60;;;5.25;;
54515;SDS011;40422;45.892;4.738;2023-02-28T15:13:31;8.63;;;4.88;;
54515;SDS011;40422;45.892;4.738;2023-02-28T15:16:04;9.05;;;5.32;;
54515;SDS011;40422;45.892;4.738;2023-02-28T15:21:26;9.13;;;5.30;;
54515;SDS011;40422;45.892;4.738;2023-02-28T15:24:08;11.90;;;6.15;;
54515;SDS011;40422;45.892;4.738;2023-02-28T15:26:39;12.02;;;5.82;;
54515;SDS011;40422;45.892;4.738;2023-02-28T15:29:13;11.88;;;6.30;;
54515;SDS011;40422;45.892;4.738;2023-02-28T15:31:46;10.57;;;5.30;;
54515;SDS011;40422;45.892;4.738;2023-02-28T15:34:18;9.63;;;5.55;;
54515;SDS011;40422;45.892;4.738;2023-02-28T15:36:46;9.75;;;5.50;;
54515;SDS011;40422;45.892;4.738;2023-02-28T15:39:19;9.95;;;5.68;;
54515;SDS011;40422;45.892;4.738;2023-02-28T15:41:47;9.77;;;5.90;;
54515;SDS011;40422;45.892;4.738;2023-02-28T15:49:26;11.73;;;6.07;;
54515;SDS011;40422;45.892;4.738;2023-02-28T15:51:53;10.93;;;5.38;;
54515;SDS011;40422;45.892;4.738;2023-02-28T15:54:24;12.65;;;6.30;;
54515;SDS011;40422;45.892;4.738;2023-02-28T15:57:02;10.57;;;5.20;;
54515;SDS011;40422;45.892;4.738;2023-02-28T15:59:33;10.55;;;5.85;;
54515;SDS011;40422;45.892;4.738;2023-02-28T16:02:03;10.32;;;6.18;;
54515;SDS011;40422;45.892;4.738;2023-02-28T16:07:22;9.25;;;5.13;;
54515;SDS011;40422;45.892;4.738;2023-02-28T16:09:49;10.27;;;6.13;;
54515;SDS011;40422;45.892;4.738;2023-02-28T16:12:15;10.73;;;5.97;;
54515;SDS011;40422;45.892;4.738;2023-02-28T16:14:41;10.27;;;6.00;;
54515;SDS011;40422;45.892;4.738;2023-02-28T16:17:10;11.45;;;6.50;;
54515;SDS011;40422;45.892;4.738;2023-02-28T16:19:46;10.43;;;6.15;;
54515;SDS011;40422;45.892;4.738;2023-02-28T16:22:11;11.75;;;6.30;;
54515;SDS011;40422;45.892;4.738;2023-02-28T16:24:37;10.68;;;6.05;;
54515;SDS011;40422;45.892;4.738;2023-02-28T16:27:06;13.23;;;6.10;;
54515;SDS011;40422;45.892;4.738;2023-02-28T16:29:35;10.18;;;6.00;;
54515;SDS011;40422;45.892;4.738;2023-02-28T16:32:04;12.20;;;6.30;;
54515;SDS011;40422;45.892;4.738;2023-02-28T16:34:30;10.77;;;5.55;;
54515;SDS011;40422;45.892;4.738;2023-02-28T16:36:56;11.10;;;5.90;;
54515;SDS011;40422;45.892;4.738;2023-02-28T16:39:21;10.45;;;5.85;;
54515;SDS011;40422;45.892;4.738;2023-02-28T16:41:48;10.15;;;5.50;;
54515;SDS011;40422;45.892;4.738;2023-02-28T16:44:26;10.52;;;5.53;;
54515;SDS011;40422;45.892;4.738;2023-02-28T16:46:54;11.65;;;6.22;;
54515;SDS011;40422;45.892;4.738;2023-02-28T16:49:20;10.75;;;5.82;;
54515;SDS011;40422;45.892;4.738;2023-02-28T16:51:47;9.77;;;5.93;;
54515;SDS011;40422;45.892;4.738;2023-02-28T16:54:13;10.85;;;6.30;;
54515;SDS011;40422;45.892;4.738;2023-02-28T16:56:41;10.75;;;6.22;;
54515;SDS011;40422;45.892;4.738;2023-02-28T16:59:09;11.93;;;6.65;;
54515;SDS011;40422;45.892;4.738;2023-02-28T17:01:36;12.00;;;6.00;;
54515;SDS011;40422;45.892;4.738;2023-02-28T17:04:02;13.48;;;7.15;;
54515;SDS011;40422;45.892;4.738;2023-02-28T17:06:28;10.15;;;5.93;;
54515;SDS011;40422;45.892;4.738;2023-02-28T17:08:54;11.60;;;6.20;;
54515;SDS011;40422;45.892;4.738;2023-02-28T17:11:22;10.95;;;6.32;;
54515;SDS011;40422;45.892;4.738;2023-02-28T17:13:49;9.95;;;6.03;;
54515;SDS011;40422;45.892;4.738;2023-02-28T17:16:22;10.27;;;6.45;;
54515;SDS011;40422;45.892;4.738;2023-02-28T17:18:53;9.60;;;5.97;;
54515;SDS011;40422;45.892;4.738;2023-02-28T17:21:22;8.80;;;5.63;;
54515;SDS011;40422;45.892;4.738;2023-02-28T17:23:48;11.35;;;6.65;;
54515;SDS011;40422;45.892;4.738;2023-02-28T17:26:16;12.80;;;6.95;;
54515;SDS011;40422;45.892;4.738;2023-02-28T17:28:46;11.48;;;7.05;;
54515;SDS011;40422;45.892;4.738;2023-02-28T17:31:13;10.27;;;6.53;;
54515;SDS011;40422;45.892;4.738;2023-02-28T17:33:38;11.27;;;6.72;;
54515;SDS011;40422;45.892;4.738;2023-02-28T17:36:04;10.20;;;6.68;;
54515;SDS011;40422;45.892;4.738;2023-02-28T17:38:31;13.38;;;8.00;;
54515;SDS011;40422;45.892;4.738;2023-02-28T17:40:56;13.77;;;8.18;;
54515;SDS011;40422;45.892;4.738;2023-02-28T17:43:23;11.75;;;6.80;;
54515;SDS011;40422;45.892;4.738;2023-02-28T17:45:50;12.52;;;7.47;;
54515;SDS011;40422;45.892;4.738;2023-02-28T17:48:16;15.63;;;7.78;;
54515;SDS011;40422;45.892;4.738;2023-02-28T17:50:41;16.90;;;9.57;;
54515;SDS011;40422;45.892;4.738;2023-02-28T17:53:07;12.82;;;7.88;;
54515;SDS011;40422;45.892;4.738;2023-02-28T17:55:33;14.10;;;8.73;;
54515;SDS011;40422;45.892;4.738;2023-02-28T17:57:59;30.48;;;15.02;;
54515;SDS011;40422;45.892;4.738;2023-02-28T18:00:25;33.75;;;18.70;;
54515;SDS011;40422;45.892;4.738;2023-02-28T18:02:51;14.15;;;8.10;;
54515;SDS011;40422;45.892;4.738;2023-02-28T18:05:16;11.70;;;6.97;;
54515;SDS011;40422;45.892;4.738;2023-02-28T18:07:42;10.95;;;6.70;;
54515;SDS011;40422;45.892;4.738;2023-02-28T18:10:16;10.63;;;6.72;;
54515;SDS011;40422;45.892;4.738;2023-02-28T18:12:44;10.70;;;5.95;;
54515;SDS011;40422;45.892;4.738;2023-02-28T18:15:15;13.27;;;7.38;;
54515;SDS011;40422;45.892;4.738;2023-02-28T18:17:42;12.40;;;6.85;;
54515;SDS011;40422;45.892;4.738;2023-02-28T18:20:09;11.40;;;7.63;;
54515;SDS011;40422;45.892;4.738;2023-02-28T18:22:36;11.07;;;6.88;;
54515;SDS011;40422;45.892;4.738;2023-02-28T18:25:03;13.15;;;6.53;;
54515;SDS011;40422;45.892;4.738;2023-02-28T18:27:30;11.75;;;7.55;;
54515;SDS011;40422;45.892;4.738;2023-02-28T18:29:55;11.68;;;6.22;;
54515;SDS011;40422;45.892;4.738;2023-02-28T18:32:21;11.73;;;6.78;;
54515;SDS011;40422;45.892;4.738;2023-02-28T18:34:46;11.57;;;6.97;;
54515;SDS011;40422;45.892;4.738;2023-02-28T18:37:12;11.50;;;6.70;;
54515;SDS011;40422;45.892;4.738;2023-02-28T18:39:40;12.38;;;6.95;;
54515;SDS011;40422;45.892;4.738;2023-02-28T18:42:06;12.70;;;6.95;;
54515;SDS011;40422;45.892;4.738;2023-02-28T18:44:31;11.25;;;6.57;;
54515;SDS011;40422;45.892;4.738;2023-02-28T18:46:57;12.55;;;7.50;;
54515;SDS011;40422;45.892;4.738;2023-02-28T18:49:22;15.85;;;6.80;;
54515;SDS011;40422;45.892;4.738;2023-02-28T18:51:48;13.02;;;5.80;;
54515;SDS011;40422;45.892;4.738;2023-02-28T18:54:14;11.35;;;7.40;;
54515;SDS011;40422;45.892;4.738;2023-02-28T18:56:41;10.05;;;5.97;;
54515;SDS011;40422;45.892;4.738;2023-02-28T18:59:07;11.95;;;6.18;;
54515;SDS011;40422;45.892;4.738;2023-02-28T19:01:33;11.57;;;6.95;;
54515;SDS011;40422;45.892;4.738;2023-02-28T19:03:59;12.20;;;6.43;;
54515;SDS011;40422;45.892;4.738;2023-02-28T19:06:25;12.25;;;7.20;;
54515;SDS011;40422;45.892;4.738;2023-02-28T19:08:53;11.63;;;6.47;;
54515;SDS011;40422;45.892;4.738;2023-02-28T19:11:20;11.65;;;7.70;;
54515;SDS011;40422;45.892;4.738;2023-02-28T19:13:46;11.23;;;6.82;;
54515;SDS011;40422;45.892;4.738;2023-02-28T19:16:13;13.13;;;6.28;;
54515;SDS011;40422;45.892;4.738;2023-02-28T19:18:40;12.73;;;6.13;;
54515;SDS011;40422;45.892;4.738;2023-02-28T19:21:06;11.30;;;6.97;;
54515;SDS011;40422;45.892;4.738;2023-02-28T19:23:37;12.68;;;6.88;;
54515;SDS011;40422;45.892;4.738;2023-02-28T19:26:07;11.65;;;7.32;;
54515;SDS011;40422;45.892;4.738;2023-02-28T19:28:43;11.27;;;5.90;;
54515;SDS011;40422;45.892;4.738;2023-02-28T19:31:13;11.45;;;6.88;;
54515;SDS011;40422;45.892;4.738;2023-02-28T19:33:40;13.35;;;6.43;;
54515;SDS011;40422;45.892;4.738;2023-02-28T19:36:07;12.18;;;6.85;;
54515;SDS011;40422;45.892;4.738;2023-02-28T19:38:35;13.25;;;8.07;;
54515;SDS011;40422;45.892;4.738;2023-02-28T19:41:01;12.68;;;6.38;;
54515;SDS011;40422;45.892;4.738;2023-02-28T19:43:28;10.73;;;6.22;;
54515;SDS011;40422;45.892;4.738;2023-02-28T19:45:54;11.02;;;7.10;;
54515;SDS011;40422;45.892;4.738;2023-02-28T19:48:19;11.70;;;7.60;;
54515;SDS011;40422;45.892;4.738;2023-02-28T19:50:49;12.13;;;6.35;;
54515;SDS011;40422;45.892;4.738;2023-02-28T19:53:15;14.73;;;7.85;;
54515;SDS011;40422;45.892;4.738;2023-02-28T19:55:41;11.73;;;7.32;;
54515;SDS011;40422;45.892;4.738;2023-02-28T19:58:06;12.82;;;6.65;;
54515;SDS011;40422;45.892;4.738;2023-02-28T20:00:32;11.85;;;6.93;;
54515;SDS011;40422;45.892;4.738;2023-02-28T20:02:57;11.93;;;7.30;;
54515;SDS011;40422;45.892;4.738;2023-02-28T20:05:23;11.75;;;6.78;;
54515;SDS011;40422;45.892;4.738;2023-02-28T20:07:49;11.82;;;6.93;;
54515;SDS011;40422;45.892;4.738;2023-02-28T20:10:14;13.93;;;7.32;;
54515;SDS011;40422;45.892;4.738;2023-02-28T20:12:40;12.15;;;7.72;;
54515;SDS011;40422;45.892;4.738;2023-02-28T20:15:06;11.73;;;6.55;;
54515;SDS011;40422;45.892;4.738;2023-02-28T20:17:32;11.70;;;6.75;;
54515;SDS011;40422;45.892;4.738;2023-02-28T20:19:57;13.70;;;7.63;;
54515;SDS011;40422;45.892;4.738;2023-02-28T20:22:23;11.13;;;6.60;;
54515;SDS011;40422;45.892;4.738;2023-02-28T20:24:49;12.43;;;7.57;;
54515;SDS011;40422;45.892;4.738;2023-02-28T20:27:14;13.18;;;7.07;;
54515;SDS011;40422;45.892;4.738;2023-02-28T20:29:41;12.23;;;7.35;;
54515;SDS011;40422;45.892;4.738;2023-02-28T20:32:06;12.55;;;7.30;;
54515;SDS011;40422;45.892;4.738;2023-02-28T20:34:32;11.93;;;6.30;;
54515;SDS011;40422;45.892;4.738;2023-02-28T20:36:58;11.40;;;6.18;;
54515;SDS011;40422;45.892;4.738;2023-02-28T20:39:24;12.95;;;7.70;;
54515;SDS011;40422;45.892;4.738;2023-02-28T20:41:49;13.10;;;8.43;;
54515;SDS011;40422;45.892;4.738;2023-02-28T20:44:15;13.25;;;7.40;;
54515;SDS011;40422;45.892;4.738;2023-02-28T20:46:41;12.23;;;8.07;;